createdAt,value
2018-01-18T00:00:01.010Z,0.00
2018-01-18T00:01:00.984Z,0.00
2018-01-18T00:02:00.948Z,0.00
2018-01-18T00:03:00.935Z,0.00
2018-01-18T00:04:00.887Z,0.00
2018-01-18T00:05:00.849Z,0.00
2018-01-18T00:06:00.826Z,0.00
2018-01-18T00:07:00.827Z,0.00
2018-01-18T00:08:00.775Z,0.00
2018-01-18T00:09:00.735Z,0.00
2018-01-18T00:10:00.709Z,0.00
2018-01-18T00:11:00.690Z,0.00
2018-01-18T00:12:00.656Z,0.00
2018-01-18T00:13:00.623Z,0.00
2018-01-18T00:14:00.595Z,0.00
2018-01-18T00:15:00.578Z,0.00
2018-01-18T00:16:00.531Z,0.00
2018-01-18T00:17:00.496Z,0.00
2018-01-18T00:18:00.460Z,0.00
2018-01-18T00:19:00.454Z,0.00
2018-01-18T00:20:00.402Z,0.00
2018-01-18T00:21:00.377Z,0.00
2018-01-18T00:22:00.350Z,0.00
2018-01-18T00:23:00.322Z,0.00
2018-01-18T00:24:00.297Z,0.00
2018-01-18T00:25:00.260Z,0.00
2018-01-18T00:26:00.235Z,0.00
2018-01-18T00:27:00.198Z,0.00
2018-01-18T00:28:00.189Z,0.00
2018-01-18T00:29:00.142Z,0.00
2018-01-18T00:30:00.108Z,0.00
2018-01-18T00:31:00.081Z,0.00
2018-01-18T00:32:00.049Z,0.00
2018-01-18T00:33:00.040Z,0.00
2018-01-18T00:34:00.000Z,0.00
2018-01-18T00:34:59.978Z,0.00
2018-01-18T00:35:59.943Z,0.00
2018-01-18T00:36:59.904Z,0.00
2018-01-18T00:37:59.870Z,0.00
2018-01-18T00:38:59.855Z,0.00
2018-01-18T00:39:59.831Z,0.00
2018-01-18T00:40:59.789Z,0.00
2018-01-18T00:41:59.757Z,0.00
2018-01-18T00:42:59.736Z,0.00
2018-01-18T00:43:59.688Z,0.00
2018-01-18T00:44:59.676Z,0.00
2018-01-18T00:45:59.639Z,0.00
2018-01-18T00:46:59.595Z,0.00
2018-01-18T00:47:59.580Z,0.00
2018-01-18T00:48:59.541Z,0.00
2018-01-18T00:49:59.511Z,0.00
2018-01-18T00:50:59.998Z,0.00
2018-01-18T00:51:59.465Z,0.00
2018-01-18T00:52:59.433Z,0.00
2018-01-18T00:53:59.396Z,0.00
2018-01-18T00:54:59.377Z,0.00
2018-01-18T00:55:59.336Z,0.00
2018-01-18T00:56:59.308Z,0.00
2018-01-18T00:57:59.305Z,0.00
2018-01-18T00:58:59.255Z,0.00
2018-01-18T00:59:59.242Z,0.00
2018-01-18T01:00:59.199Z,0.00
2018-01-18T01:01:59.155Z,0.00
2018-01-18T01:02:59.123Z,0.00
2018-01-18T01:03:59.104Z,0.00
2018-01-18T01:04:59.112Z,0.00
2018-01-18T01:05:59.034Z,0.00
2018-01-18T01:06:59.022Z,0.00
2018-01-18T01:07:59.001Z,0.00
2018-01-18T01:08:58.973Z,0.00
2018-01-18T01:09:58.926Z,0.00
2018-01-18T01:10:58.896Z,0.00
2018-01-18T01:11:58.863Z,0.00
2018-01-18T01:12:58.829Z,0.00
2018-01-18T01:13:58.798Z,0.00
2018-01-18T01:14:58.791Z,0.00
2018-01-18T01:15:58.730Z,0.00
2018-01-18T01:16:58.701Z,0.00
2018-01-18T01:17:58.688Z,0.00
2018-01-18T01:18:58.655Z,0.00
2018-01-18T01:19:58.624Z,0.00
2018-01-18T01:20:58.583Z,0.00
2018-01-18T01:21:58.576Z,0.00
2018-01-18T01:22:58.560Z,0.00
2018-01-18T01:23:58.524Z,0.00
2018-01-18T01:24:58.477Z,0.00
2018-01-18T01:25:58.449Z,0.00
2018-01-18T01:26:58.414Z,0.00
2018-01-18T01:27:58.395Z,0.00
2018-01-18T01:28:58.367Z,0.00
2018-01-18T01:29:59.005Z,0.00
2018-01-18T01:30:58.292Z,0.00
2018-01-18T01:31:58.267Z,0.00
2018-01-18T01:32:58.240Z,0.00
2018-01-18T01:33:58.215Z,0.00
2018-01-18T01:34:58.182Z,0.00
2018-01-18T01:35:58.154Z,0.00
2018-01-18T01:36:58.123Z,0.00
2018-01-18T01:37:58.092Z,0.00
2018-01-18T01:38:58.061Z,0.00
2018-01-18T01:39:58.049Z,0.00
2018-01-18T01:40:58.007Z,0.00
2018-01-18T01:41:57.965Z,0.00
2018-01-18T01:42:57.938Z,0.00
2018-01-18T01:43:57.913Z,0.00
2018-01-18T01:44:57.904Z,0.00
2018-01-18T01:45:57.886Z,0.00
2018-01-18T01:46:57.825Z,0.00
2018-01-18T01:47:57.805Z,0.00
2018-01-18T01:48:57.775Z,0.00
2018-01-18T01:49:57.738Z,0.00
2018-01-18T01:50:57.717Z,0.00
2018-01-18T01:51:57.678Z,0.00
2018-01-18T01:52:57.654Z,0.00
2018-01-18T01:53:57.614Z,0.00
2018-01-18T01:54:57.588Z,0.00
2018-01-18T01:55:57.585Z,0.00
2018-01-18T01:56:57.532Z,0.00
2018-01-18T01:57:57.499Z,0.00
2018-01-18T01:58:57.475Z,0.00
2018-01-18T01:59:57.456Z,0.00
2018-01-18T02:00:57.416Z,0.00
2018-01-18T02:01:57.411Z,0.00
2018-01-18T02:02:57.355Z,0.00
2018-01-18T02:03:57.329Z,0.00
2018-01-18T02:04:57.313Z,0.00
2018-01-18T02:05:57.263Z,0.00
2018-01-18T02:06:57.250Z,0.00
2018-01-18T02:07:57.210Z,0.00
2018-01-18T02:08:57.225Z,0.00
2018-01-18T02:09:57.160Z,0.00
2018-01-18T02:10:57.138Z,0.00
2018-01-18T02:11:57.094Z,0.00
2018-01-18T02:12:57.063Z,0.00
2018-01-18T02:13:57.031Z,0.00
2018-01-18T02:14:57.007Z,0.00
2018-01-18T02:15:56.972Z,0.00
2018-01-18T02:16:56.953Z,0.00
2018-01-18T02:17:56.946Z,0.00
2018-01-18T02:18:56.912Z,0.00
2018-01-18T02:19:56.869Z,0.00
2018-01-18T02:20:56.873Z,0.00
2018-01-18T02:21:56.801Z,0.00
2018-01-18T02:22:56.780Z,0.00
2018-01-18T02:23:56.746Z,0.00
2018-01-18T02:24:56.720Z,0.00
2018-01-18T02:25:56.682Z,0.00
2018-01-18T02:26:56.668Z,0.00
2018-01-18T02:27:56.633Z,0.00
2018-01-18T02:28:56.585Z,0.00
2018-01-18T02:29:56.580Z,0.00
2018-01-18T02:30:56.543Z,0.00
2018-01-18T02:31:56.519Z,0.00
2018-01-18T02:32:56.471Z,0.00
2018-01-18T02:33:56.449Z,0.00
2018-01-18T02:34:56.419Z,0.00
2018-01-18T02:35:56.418Z,0.00
2018-01-18T02:36:56.366Z,0.00
2018-01-18T02:37:56.337Z,0.00
2018-01-18T02:38:56.317Z,0.00
2018-01-18T02:39:56.288Z,0.00
2018-01-18T02:40:56.269Z,0.00
2018-01-18T02:41:56.215Z,0.00
2018-01-18T02:42:56.204Z,0.00
2018-01-18T02:43:56.170Z,0.00
2018-01-18T02:44:56.124Z,0.00
2018-01-18T02:45:56.126Z,0.00
2018-01-18T02:46:56.071Z,0.00
2018-01-18T02:47:56.050Z,0.00
2018-01-18T02:48:56.039Z,0.00
2018-01-18T02:49:56.018Z,0.00
2018-01-18T02:50:55.986Z,0.00
2018-01-18T02:51:55.935Z,0.00
2018-01-18T02:52:55.911Z,0.00
2018-01-18T02:53:55.875Z,0.00
2018-01-18T02:54:55.846Z,0.00
2018-01-18T02:55:55.803Z,0.00
2018-01-18T02:56:55.779Z,0.00
2018-01-18T02:57:55.743Z,0.00
2018-01-18T02:58:55.718Z,0.00
2018-01-18T02:59:55.706Z,0.00
2018-01-18T03:00:55.681Z,0.00
2018-01-18T03:01:55.643Z,0.00
2018-01-18T03:02:55.604Z,0.00
2018-01-18T03:03:55.572Z,0.00
2018-01-18T03:04:55.536Z,0.00
2018-01-18T03:05:55.518Z,0.00
2018-01-18T03:06:55.495Z,0.00
2018-01-18T03:07:55.520Z,0.00
2018-01-18T03:08:55.448Z,0.00
2018-01-18T03:09:55.401Z,0.00
2018-01-18T03:10:55.379Z,0.00
2018-01-18T03:11:55.357Z,0.00
2018-01-18T03:12:56.038Z,0.00
2018-01-18T03:13:55.287Z,0.00
2018-01-18T03:14:55.257Z,0.00
2018-01-18T03:15:55.233Z,0.00
2018-01-18T03:16:55.221Z,0.00
2018-01-18T03:17:55.155Z,0.00
2018-01-18T03:18:55.155Z,0.00
2018-01-18T03:19:55.147Z,0.00
2018-01-18T03:20:55.075Z,0.00
2018-01-18T03:21:55.040Z,0.00
2018-01-18T03:22:55.014Z,0.00
2018-01-18T03:23:55.007Z,0.00
2018-01-18T03:24:54.969Z,0.00
2018-01-18T03:25:54.935Z,0.00
2018-01-18T03:26:54.902Z,0.00
2018-01-18T03:27:54.874Z,0.00
2018-01-18T03:28:54.833Z,0.00
2018-01-18T03:29:54.817Z,0.00
2018-01-18T03:30:54.811Z,0.00
2018-01-18T03:31:54.763Z,0.00
2018-01-18T03:32:54.740Z,0.00
2018-01-18T03:33:54.704Z,0.00
2018-01-18T03:34:54.679Z,0.00
2018-01-18T03:35:54.635Z,0.00
2018-01-18T03:36:54.600Z,0.00
2018-01-18T03:37:54.593Z,0.00
2018-01-18T03:38:54.573Z,0.00
2018-01-18T03:39:54.512Z,0.00
2018-01-18T03:40:54.515Z,0.00
2018-01-18T03:41:54.457Z,0.00
2018-01-18T03:42:54.431Z,0.00
2018-01-18T03:43:54.416Z,0.00
2018-01-18T03:44:54.376Z,0.00
2018-01-18T03:45:54.345Z,0.00
2018-01-18T03:46:54.350Z,0.00
2018-01-18T03:47:54.281Z,0.00
2018-01-18T03:48:54.260Z,0.00
2018-01-18T03:49:54.241Z,0.00
2018-01-18T03:50:54.205Z,0.00
2018-01-18T03:51:54.163Z,0.00
2018-01-18T03:52:54.174Z,0.00
2018-01-18T03:53:54.132Z,0.00
2018-01-18T03:54:54.086Z,0.00
2018-01-18T03:55:54.058Z,0.00
2018-01-18T03:56:54.015Z,0.00
2018-01-18T03:57:54.001Z,0.00
2018-01-18T03:58:53.989Z,0.00
2018-01-18T03:59:53.936Z,0.00
2018-01-18T04:00:53.898Z,0.00
2018-01-18T04:01:53.894Z,0.00
2018-01-18T04:02:53.859Z,0.00
2018-01-18T04:03:53.834Z,0.00
2018-01-18T04:04:53.796Z,0.00
2018-01-18T04:05:53.769Z,0.00
2018-01-18T04:06:53.745Z,0.00
2018-01-18T04:07:53.712Z,0.00
2018-01-18T04:08:53.672Z,0.00
2018-01-18T04:09:53.665Z,0.00
2018-01-18T04:10:53.619Z,0.00
2018-01-18T04:11:53.616Z,0.00
2018-01-18T04:12:53.565Z,0.00
2018-01-18T04:13:53.523Z,0.00
2018-01-18T04:14:53.512Z,0.00
2018-01-18T04:15:53.486Z,0.00
2018-01-18T04:16:53.439Z,0.00
2018-01-18T04:17:53.431Z,0.00
2018-01-18T04:18:53.406Z,0.00
2018-01-18T04:19:53.351Z,0.00
2018-01-18T04:20:53.340Z,0.00
2018-01-18T04:21:53.293Z,0.00
2018-01-18T04:22:53.261Z,0.00
2018-01-18T04:23:53.240Z,0.00
2018-01-18T04:24:53.201Z,0.00
2018-01-18T04:25:53.180Z,0.00
2018-01-18T04:26:53.152Z,0.00
2018-01-18T04:27:53.129Z,0.00
2018-01-18T04:28:53.093Z,0.00
2018-01-18T04:29:53.069Z,0.00
2018-01-18T04:30:53.036Z,0.00
2018-01-18T04:31:52.994Z,0.00
2018-01-18T04:32:52.965Z,0.00
2018-01-18T04:33:52.961Z,0.00
2018-01-18T04:34:52.931Z,0.00
2018-01-18T04:35:52.903Z,0.00
2018-01-18T04:36:52.897Z,0.00
2018-01-18T04:37:52.848Z,0.00
2018-01-18T04:38:52.795Z,0.00
2018-01-18T04:39:52.774Z,0.00
2018-01-18T04:40:52.744Z,0.00
2018-01-18T04:41:52.714Z,0.00
2018-01-18T04:42:52.709Z,0.00
2018-01-18T04:43:52.643Z,0.00
2018-01-18T04:44:52.637Z,0.00
2018-01-18T04:45:52.596Z,0.00
2018-01-18T04:46:52.588Z,0.00
2018-01-18T04:47:52.542Z,0.00
2018-01-18T04:48:52.513Z,0.00
2018-01-18T04:49:52.474Z,0.00
2018-01-18T04:50:52.477Z,0.00
2018-01-18T04:51:52.446Z,0.00
2018-01-18T04:52:52.389Z,0.00
2018-01-18T04:53:52.379Z,0.00
2018-01-18T04:54:52.319Z,0.00
2018-01-18T04:55:52.294Z,0.00
2018-01-18T04:56:52.270Z,0.00
2018-01-18T04:57:52.257Z,0.00
2018-01-18T04:58:52.227Z,0.00
2018-01-18T04:59:52.196Z,0.00
2018-01-18T05:00:52.141Z,0.00
2018-01-18T05:01:52.141Z,0.00
2018-01-18T05:02:52.093Z,0.00
2018-01-18T05:03:52.073Z,0.00
2018-01-18T05:04:52.078Z,0.00
2018-01-18T05:05:52.009Z,0.00
2018-01-18T05:06:51.993Z,0.00
2018-01-18T05:07:51.948Z,0.00
2018-01-18T05:08:51.942Z,0.00
2018-01-18T05:09:51.900Z,0.00
2018-01-18T05:10:51.873Z,0.00
2018-01-18T05:11:51.852Z,0.00
2018-01-18T05:12:51.802Z,0.00
2018-01-18T05:13:51.776Z,0.00
2018-01-18T05:14:51.750Z,0.00
2018-01-18T05:15:51.724Z,0.00
2018-01-18T05:16:51.675Z,0.00
2018-01-18T05:17:51.652Z,0.00
2018-01-18T05:18:51.617Z,0.00
2018-01-18T05:19:51.595Z,0.00
2018-01-18T05:20:53.274Z,0.00
2018-01-18T05:21:52.638Z,0.00
2018-01-18T05:22:51.500Z,0.00
2018-01-18T05:23:51.490Z,0.00
2018-01-18T05:24:51.463Z,0.00
2018-01-18T05:25:51.416Z,0.00
2018-01-18T05:26:51.392Z,0.00
2018-01-18T05:27:51.373Z,0.00
2018-01-18T05:28:51.370Z,0.00
2018-01-18T05:29:51.298Z,0.00
2018-01-18T05:30:51.277Z,0.00
2018-01-18T05:31:51.249Z,0.00
2018-01-18T05:32:51.223Z,0.00
2018-01-18T05:33:51.174Z,0.00
2018-01-18T05:34:51.167Z,0.00
2018-01-18T05:35:51.139Z,0.00
2018-01-18T05:36:51.119Z,0.00
2018-01-18T05:37:51.114Z,0.00
2018-01-18T05:38:51.036Z,0.00
2018-01-18T05:39:51.002Z,0.00
2018-01-18T05:40:50.989Z,0.00
2018-01-18T05:41:50.951Z,0.00
2018-01-18T05:42:50.912Z,0.00
2018-01-18T05:43:50.886Z,0.00
2018-01-18T05:44:50.848Z,0.00
2018-01-18T05:45:50.839Z,0.00
2018-01-18T05:46:50.794Z,0.00
2018-01-18T05:47:50.766Z,0.00
2018-01-18T05:48:50.744Z,0.00
2018-01-18T05:49:50.705Z,0.00
2018-01-18T05:50:50.680Z,0.00
2018-01-18T05:51:50.674Z,0.00
2018-01-18T05:52:50.624Z,0.00
2018-01-18T05:53:50.582Z,0.00
2018-01-18T05:54:50.557Z,0.00
2018-01-18T05:55:50.526Z,0.00
2018-01-18T05:56:50.493Z,0.00
2018-01-18T05:57:50.460Z,0.00
2018-01-18T05:58:50.441Z,0.00
2018-01-18T05:59:50.435Z,0.00
2018-01-18T06:00:50.396Z,0.00
2018-01-18T06:01:50.341Z,0.00
2018-01-18T06:02:50.320Z,0.00
2018-01-18T06:03:50.300Z,0.00
2018-01-18T06:04:50.246Z,0.00
2018-01-18T06:05:50.235Z,0.00
2018-01-18T06:06:50.198Z,0.00
2018-01-18T06:07:50.180Z,0.00
2018-01-18T06:08:50.133Z,0.00
2018-01-18T06:09:50.106Z,0.00
2018-01-18T06:10:50.100Z,0.00
2018-01-18T06:11:50.052Z,0.00
2018-01-18T06:12:50.014Z,0.00
2018-01-18T06:13:49.985Z,0.00
2018-01-18T06:14:49.966Z,0.00
2018-01-18T06:15:49.970Z,0.00
2018-01-18T06:16:49.892Z,0.00
2018-01-18T06:17:49.872Z,0.00
2018-01-18T06:18:49.842Z,0.00
2018-01-18T06:19:49.802Z,0.00
2018-01-18T06:20:49.777Z,0.00
2018-01-18T06:21:49.756Z,0.00
2018-01-18T06:22:49.728Z,0.00
2018-01-18T06:23:49.686Z,0.00
2018-01-18T06:24:49.653Z,0.00
2018-01-18T06:25:49.632Z,0.00
2018-01-18T06:26:49.603Z,0.00
2018-01-18T06:27:49.582Z,0.00
2018-01-18T06:28:49.529Z,0.00
2018-01-18T06:29:49.499Z,0.00
2018-01-18T06:30:49.470Z,0.00
2018-01-18T06:31:49.447Z,0.00
2018-01-18T06:32:49.411Z,0.00
2018-01-18T06:33:49.391Z,0.00
2018-01-18T06:34:49.355Z,0.00
2018-01-18T06:35:49.327Z,0.00
2018-01-18T06:36:49.313Z,0.00
2018-01-18T06:37:49.278Z,0.00
2018-01-18T06:38:49.236Z,0.00
2018-01-18T06:39:49.267Z,0.00
2018-01-18T06:40:49.193Z,0.00
2018-01-18T06:41:49.156Z,0.00
2018-01-18T06:42:49.124Z,0.00
2018-01-18T06:43:49.088Z,0.00
2018-01-18T06:44:49.126Z,0.00
2018-01-18T06:45:49.039Z,0.00
2018-01-18T06:46:49.001Z,0.00
2018-01-18T06:47:48.967Z,0.00
2018-01-18T06:48:48.950Z,0.00
2018-01-18T06:49:48.903Z,0.00
2018-01-18T06:50:48.878Z,0.00
2018-01-18T06:51:48.865Z,0.00
2018-01-18T06:52:48.820Z,0.00
2018-01-18T06:53:48.798Z,0.00
2018-01-18T06:54:48.801Z,0.00
2018-01-18T06:55:48.760Z,0.00
2018-01-18T06:56:48.728Z,0.00
2018-01-18T06:57:48.704Z,0.00
2018-01-18T06:58:48.638Z,0.00
2018-01-18T06:59:48.640Z,0.00
2018-01-18T07:00:48.581Z,0.00
2018-01-18T07:01:48.564Z,0.00
2018-01-18T07:02:48.520Z,0.00
2018-01-18T07:03:48.496Z,0.00
2018-01-18T07:04:48.494Z,0.00
2018-01-18T07:05:48.445Z,0.00
2018-01-18T07:06:48.406Z,0.00
2018-01-18T07:07:48.374Z,0.00
2018-01-18T07:08:48.341Z,0.00
2018-01-18T07:09:48.318Z,0.00
2018-01-18T07:10:48.297Z,0.00
2018-01-18T07:11:48.257Z,0.00
2018-01-18T07:12:48.230Z,0.00
2018-01-18T07:13:48.200Z,0.00
2018-01-18T07:14:48.185Z,0.00
2018-01-18T07:15:48.158Z,0.00
2018-01-18T07:16:48.108Z,0.00
2018-01-18T07:17:48.088Z,4.00
2018-01-18T07:18:48.075Z,0.00
2018-01-18T07:19:48.031Z,4.00
2018-01-18T07:20:47.992Z,4.00
2018-01-18T07:21:47.995Z,4.00
2018-01-18T07:22:47.959Z,4.00
2018-01-18T07:23:47.914Z,4.00
2018-01-18T07:24:47.893Z,4.00
2018-01-18T07:25:47.863Z,4.00
2018-01-18T07:26:47.822Z,4.00
2018-01-18T07:27:47.794Z,4.00
2018-01-18T07:28:47.760Z,4.00
2018-01-18T07:29:47.728Z,4.00
2018-01-18T07:30:47.715Z,8.00
2018-01-18T07:31:47.667Z,20.00
2018-01-18T07:32:47.666Z,16.00
2018-01-18T07:33:47.624Z,16.00
2018-01-18T07:34:47.582Z,16.00
2018-01-18T07:35:47.563Z,20.00
2018-01-18T07:36:47.546Z,16.00
2018-01-18T07:37:47.502Z,28.00
2018-01-18T07:38:47.486Z,28.00
2018-01-18T07:39:47.445Z,36.00
2018-01-18T07:40:47.413Z,56.00
2018-01-18T07:41:47.402Z,56.00
2018-01-18T07:42:47.387Z,56.00
2018-01-18T07:43:47.388Z,44.00
2018-01-18T07:44:47.298Z,32.00
2018-01-18T07:45:47.276Z,24.00
2018-01-18T07:46:47.263Z,20.00
2018-01-18T07:47:47.229Z,24.00
2018-01-18T07:48:47.213Z,44.00
2018-01-18T07:49:47.159Z,44.00
2018-01-18T07:50:47.133Z,36.00
2018-01-18T07:51:47.096Z,32.00
2018-01-18T07:52:47.082Z,28.00
2018-01-18T07:53:47.047Z,32.00
2018-01-18T07:54:47.026Z,36.00
2018-01-18T07:55:46.996Z,56.00
2018-01-18T07:56:47.580Z,48.00
2018-01-18T07:57:46.939Z,40.00
2018-01-18T07:58:46.915Z,24.00
2018-01-18T07:59:46.878Z,24.00
2018-01-18T08:00:46.862Z,32.00
2018-01-18T08:01:46.823Z,24.00
2018-01-18T08:02:46.784Z,32.00
2018-01-18T08:03:46.768Z,28.00
2018-01-18T08:04:46.728Z,44.00
2018-01-18T08:05:46.724Z,72.00
2018-01-18T08:06:46.679Z,124.00
2018-01-18T08:07:46.648Z,208.00
2018-01-18T08:08:46.620Z,272.00
2018-01-18T08:09:46.597Z,232.00
2018-01-18T08:10:46.569Z,236.00
2018-01-18T08:11:46.535Z,236.00
2018-01-18T08:12:46.530Z,280.00
2018-01-18T08:13:46.480Z,380.00
2018-01-18T08:14:46.456Z,476.00
2018-01-18T08:15:46.440Z,548.00
2018-01-18T08:16:46.389Z,500.00
2018-01-18T08:17:46.401Z,316.00
2018-01-18T08:18:46.345Z,284.00
2018-01-18T08:19:46.311Z,500.00
2018-01-18T08:20:46.285Z,636.00
2018-01-18T08:21:46.257Z,712.00
2018-01-18T08:22:46.227Z,624.00
2018-01-18T08:23:46.199Z,532.00
2018-01-18T08:24:46.177Z,396.00
2018-01-18T08:25:46.143Z,284.00
2018-01-18T08:26:46.117Z,328.00
2018-01-18T08:27:46.135Z,364.00
2018-01-18T08:28:46.063Z,404.00
2018-01-18T08:29:46.053Z,504.00
2018-01-18T08:30:46.016Z,624.00
2018-01-18T08:31:45.981Z,572.00
2018-01-18T08:32:45.955Z,592.00
2018-01-18T08:33:45.919Z,536.00
2018-01-18T08:34:45.900Z,412.00
2018-01-18T08:35:45.876Z,276.00
2018-01-18T08:36:45.844Z,240.00
2018-01-18T08:37:46.013Z,300.00
2018-01-18T08:38:45.796Z,432.00
2018-01-18T08:39:45.755Z,476.00
2018-01-18T08:40:45.737Z,500.00
2018-01-18T08:41:45.701Z,528.00
2018-01-18T08:42:45.677Z,572.00
2018-01-18T08:43:45.646Z,584.00
2018-01-18T08:44:45.621Z,592.00
2018-01-18T08:45:45.597Z,540.00
2018-01-18T08:46:45.573Z,456.00
2018-01-18T08:47:45.550Z,420.00
2018-01-18T08:48:45.511Z,296.00
2018-01-18T08:49:45.493Z,140.00
2018-01-18T08:50:45.465Z,120.00
2018-01-18T08:51:45.451Z,156.00
2018-01-18T08:52:45.423Z,232.00
2018-01-18T08:53:45.381Z,212.00
2018-01-18T08:54:45.356Z,228.00
2018-01-18T08:55:45.326Z,180.00
2018-01-18T08:56:45.302Z,152.00
2018-01-18T08:57:45.274Z,116.00
2018-01-18T08:58:45.239Z,100.00
2018-01-18T08:59:45.218Z,128.00
2018-01-18T09:00:45.193Z,136.00
2018-01-18T09:01:45.159Z,124.00
2018-01-18T09:02:45.188Z,120.00
2018-01-18T09:03:45.112Z,152.00
2018-01-18T09:04:45.085Z,272.00
2018-01-18T09:05:45.051Z,348.00
2018-01-18T09:06:45.023Z,484.00
2018-01-18T09:07:45.005Z,452.00
2018-01-18T09:08:44.973Z,352.00
2018-01-18T09:09:44.942Z,440.00
2018-01-18T09:10:44.921Z,492.00
2018-01-18T09:11:44.898Z,500.00
2018-01-18T09:12:44.867Z,268.00
2018-01-18T09:13:44.833Z,368.00
2018-01-18T09:14:44.822Z,616.00
2018-01-18T09:15:44.787Z,548.00
2018-01-18T09:16:44.779Z,552.00
2018-01-18T09:17:44.741Z,736.00
2018-01-18T09:18:44.707Z,936.00
2018-01-18T09:19:44.672Z,996.00
2018-01-18T09:20:44.651Z,920.00
2018-01-18T09:21:44.624Z,904.00
2018-01-18T09:22:44.597Z,912.00
2018-01-18T09:23:44.571Z,916.00
2018-01-18T09:24:44.547Z,784.00
2018-01-18T09:25:44.520Z,872.00
2018-01-18T09:26:44.491Z,788.00
2018-01-18T09:27:44.467Z,784.00
2018-01-18T09:28:44.434Z,836.00
2018-01-18T09:29:44.436Z,776.00
2018-01-18T09:30:44.395Z,740.00
2018-01-18T09:31:44.354Z,628.00
2018-01-18T09:32:44.328Z,608.00
2018-01-18T09:33:44.303Z,520.00
2018-01-18T09:34:44.468Z,656.00
2018-01-18T09:35:44.248Z,996.00
2018-01-18T09:36:44.230Z,1116.00
2018-01-18T09:37:44.201Z,992.00
2018-01-18T09:38:44.184Z,928.00
2018-01-18T09:39:44.134Z,952.00
2018-01-18T09:40:44.115Z,1088.00
2018-01-18T09:41:44.082Z,1324.00
2018-01-18T09:42:44.069Z,1248.00
2018-01-18T09:43:44.032Z,1064.00
2018-01-18T09:44:44.002Z,924.00
2018-01-18T09:45:43.976Z,684.00
2018-01-18T09:46:43.952Z,632.00
2018-01-18T09:47:43.940Z,560.00
2018-01-18T09:48:43.906Z,568.00
2018-01-18T09:49:43.865Z,500.00
2018-01-18T09:50:43.845Z,492.00
2018-01-18T09:51:43.811Z,420.00
2018-01-18T09:52:43.782Z,420.00
2018-01-18T09:53:43.763Z,428.00
2018-01-18T09:54:43.733Z,452.00
2018-01-18T09:55:43.737Z,576.00
2018-01-18T09:56:43.676Z,636.00
2018-01-18T09:57:43.654Z,480.00
2018-01-18T09:58:43.633Z,416.00
2018-01-18T09:59:43.590Z,320.00
2018-01-18T10:00:43.571Z,412.00
2018-01-18T10:01:43.543Z,612.00
2018-01-18T10:02:43.520Z,708.00
2018-01-18T10:03:43.493Z,624.00
2018-01-18T10:04:43.469Z,472.00
2018-01-18T10:05:43.441Z,528.00
2018-01-18T10:06:43.411Z,640.00
2018-01-18T10:07:43.402Z,536.00
2018-01-18T10:08:43.362Z,484.00
2018-01-18T10:09:43.322Z,468.00
2018-01-18T10:10:43.308Z,492.00
2018-01-18T10:11:43.273Z,640.00
2018-01-18T10:12:43.242Z,640.00
2018-01-18T10:13:43.226Z,424.00
2018-01-18T10:14:44.092Z,440.00
2018-01-18T10:15:43.169Z,488.00
2018-01-18T10:16:43.140Z,760.00
2018-01-18T10:17:43.117Z,512.00
2018-01-18T10:18:43.080Z,548.00
2018-01-18T10:19:43.058Z,784.00
2018-01-18T10:20:43.027Z,748.00
2018-01-18T10:21:43.005Z,760.00
2018-01-18T10:22:42.982Z,484.00
2018-01-18T10:23:42.955Z,616.00
2018-01-18T10:24:42.944Z,568.00
2018-01-18T10:25:42.890Z,1268.00
2018-01-18T10:26:42.873Z,1036.00
2018-01-18T10:27:42.855Z,1128.00
2018-01-18T10:28:42.804Z,1328.00
2018-01-18T10:29:42.777Z,988.00
2018-01-18T10:30:42.787Z,996.00
2018-01-18T10:31:42.722Z,1208.00
2018-01-18T10:32:42.704Z,1044.00
2018-01-18T10:33:42.675Z,872.00
2018-01-18T10:34:42.659Z,1332.00
2018-01-18T10:35:42.620Z,940.00
2018-01-18T10:36:42.621Z,540.00
2018-01-18T10:37:42.572Z,660.00
2018-01-18T10:38:42.536Z,804.00
2018-01-18T10:39:42.510Z,880.00
2018-01-18T10:40:42.475Z,932.00
2018-01-18T10:41:42.448Z,716.00
2018-01-18T10:42:42.425Z,604.00
2018-01-18T10:43:42.391Z,520.00
2018-01-18T10:44:42.373Z,480.00
2018-01-18T10:45:42.347Z,544.00
2018-01-18T10:46:42.309Z,448.00
2018-01-18T10:47:42.288Z,500.00
2018-01-18T10:48:42.258Z,560.00
2018-01-18T10:49:42.234Z,592.00
2018-01-18T10:50:42.208Z,464.00
2018-01-18T10:51:42.174Z,440.00
2018-01-18T10:52:42.147Z,472.00
2018-01-18T10:53:42.120Z,496.00
2018-01-18T10:54:42.084Z,552.00
2018-01-18T10:55:42.069Z,484.00
2018-01-18T10:56:42.047Z,588.00
2018-01-18T10:57:41.999Z,556.00
2018-01-18T10:58:41.974Z,588.00
2018-01-18T10:59:41.958Z,512.00
2018-01-18T11:00:41.942Z,568.00
2018-01-18T11:01:42.589Z,640.00
2018-01-18T11:02:41.898Z,640.00
2018-01-18T11:03:41.837Z,484.00
2018-01-18T11:04:41.816Z,448.00
2018-01-18T11:05:41.790Z,504.00
2018-01-18T11:06:41.749Z,588.00
2018-01-18T11:07:41.713Z,528.00
2018-01-18T11:08:41.708Z,488.00
2018-01-18T11:09:41.669Z,432.00
2018-01-18T11:10:41.657Z,500.00
2018-01-18T11:11:41.614Z,664.00
2018-01-18T11:12:41.578Z,604.00
2018-01-18T11:13:41.548Z,600.00
2018-01-18T11:14:41.529Z,472.00
2018-01-18T11:15:41.496Z,532.00
2018-01-18T11:16:41.458Z,588.00
2018-01-18T11:17:41.436Z,632.00
2018-01-18T11:18:41.409Z,728.00
2018-01-18T11:19:41.380Z,676.00
2018-01-18T11:20:41.346Z,688.00
2018-01-18T11:21:41.319Z,600.00
2018-01-18T11:22:41.303Z,540.00
2018-01-18T11:23:41.264Z,660.00
2018-01-18T11:24:41.234Z,636.00
2018-01-18T11:25:41.207Z,640.00
2018-01-18T11:26:41.173Z,584.00
2018-01-18T11:27:41.141Z,472.00
2018-01-18T11:28:41.114Z,520.00
2018-01-18T11:29:41.079Z,500.00
2018-01-18T11:30:41.053Z,456.00
2018-01-18T11:31:41.037Z,504.00
2018-01-18T11:32:41.004Z,540.00
2018-01-18T11:33:40.976Z,524.00
2018-01-18T11:34:40.960Z,472.00
2018-01-18T11:35:40.910Z,564.00
2018-01-18T11:36:40.884Z,516.00
2018-01-18T11:37:40.867Z,504.00
2018-01-18T11:38:40.826Z,568.00
2018-01-18T11:39:40.828Z,632.00
2018-01-18T11:40:40.767Z,672.00
2018-01-18T11:41:40.742Z,716.00
2018-01-18T11:42:40.723Z,736.00
2018-01-18T11:43:40.718Z,864.00
2018-01-18T11:44:40.659Z,972.00
2018-01-18T11:45:40.627Z,668.00
2018-01-18T11:46:40.622Z,772.00
2018-01-18T11:47:40.576Z,832.00
2018-01-18T11:48:40.560Z,1048.00
2018-01-18T11:49:41.089Z,928.00
2018-01-18T11:50:40.476Z,1076.00
2018-01-18T11:51:40.468Z,1060.00
2018-01-18T11:52:40.420Z,1196.00
2018-01-18T11:53:40.385Z,1264.00
2018-01-18T11:54:40.362Z,1216.00
2018-01-18T11:55:40.371Z,1252.00
2018-01-18T11:56:40.303Z,1072.00
2018-01-18T11:57:40.274Z,1264.00
2018-01-18T11:58:40.251Z,1256.00
2018-01-18T11:59:40.214Z,1072.00
2018-01-18T12:00:40.185Z,1160.00
2018-01-18T12:01:40.181Z,1224.00
2018-01-18T12:02:40.132Z,1024.00
2018-01-18T12:03:40.099Z,1020.00
2018-01-18T12:04:40.076Z,1188.00
2018-01-18T12:05:40.065Z,1108.00
2018-01-18T12:06:40.024Z,1012.00
2018-01-18T12:07:39.982Z,1132.00
2018-01-18T12:08:39.959Z,1104.00
2018-01-18T12:09:39.934Z,812.00
2018-01-18T12:10:39.903Z,752.00
2018-01-18T12:11:39.890Z,884.00
2018-01-18T12:12:39.866Z,1300.00
2018-01-18T12:13:39.810Z,948.00
2018-01-18T12:14:39.781Z,1216.00
2018-01-18T12:15:39.773Z,1252.00
2018-01-18T12:16:39.724Z,1300.00
2018-01-18T12:17:39.697Z,1104.00
2018-01-18T12:18:39.663Z,1236.00
2018-01-18T12:19:39.651Z,996.00
2018-01-18T12:20:39.608Z,1196.00
2018-01-18T12:21:39.573Z,1052.00
2018-01-18T12:22:39.554Z,1048.00
2018-01-18T12:23:39.590Z,1184.00
2018-01-18T12:24:39.507Z,1012.00
2018-01-18T12:25:39.456Z,1080.00
2018-01-18T12:26:39.455Z,1276.00
2018-01-18T12:27:39.413Z,928.00
2018-01-18T12:28:39.386Z,1016.00
2018-01-18T12:29:39.350Z,888.00
2018-01-18T12:30:39.311Z,1052.00
2018-01-18T12:31:39.296Z,1112.00
2018-01-18T12:32:39.265Z,1352.00
2018-01-18T12:33:39.233Z,1332.00
2018-01-18T12:34:39.198Z,1448.00
2018-01-18T12:35:39.186Z,1172.00
2018-01-18T12:36:39.164Z,1012.00
2018-01-18T12:37:39.119Z,1232.00
2018-01-18T12:38:39.091Z,1048.00
2018-01-18T12:39:39.068Z,1172.00
2018-01-18T12:40:39.025Z,1012.00
2018-01-18T12:41:39.000Z,1048.00
2018-01-18T12:42:38.970Z,1092.00
2018-01-18T12:43:38.947Z,1048.00
2018-01-18T12:44:38.907Z,968.00
2018-01-18T12:45:38.887Z,968.00
2018-01-18T12:46:38.862Z,1140.00
2018-01-18T12:47:38.821Z,960.00
2018-01-18T12:48:38.800Z,864.00
2018-01-18T12:49:38.792Z,940.00
2018-01-18T12:50:38.746Z,1072.00
2018-01-18T12:51:38.704Z,1020.00
2018-01-18T12:52:38.683Z,920.00
2018-01-18T12:53:38.666Z,972.00
2018-01-18T12:54:38.630Z,1232.00